Time;durP1;ratioP1;P1;durP2;ratioP2;P2;SDS_P1;SDS_P2;PMS_P1;PMS_P2;Temp;Humidity;BMP_temperature;BMP_pressure;BME280_temperature;BME280_humidity;BME280_pressure;Samples;Min_cycle;Max_cycle;Signal;HPM_P1;HPM_P2
2022/05/28 00:00:34;;;;;;;3.67;3.30;;;12.30;33.00;;;;;;5015549;28;20447;-69
2022/05/28 00:03:01;;;;;;;2.70;2.50;;;12.30;33.00;;;;;;5015423;28;20198;-67
2022/05/28 00:05:27;;;;;;;4.97;3.40;;;12.40;32.90;;;;;;5015642;28;20414;-68
2022/05/28 00:07:52;;;;;;;2.60;2.40;;;12.30;33.00;;;;;;5015686;28;20425;-69
2022/05/28 00:10:19;;;;;;;5.27;3.40;;;12.30;33.00;;;;;;5015493;28;20688;-68
2022/05/28 00:12:45;;;;;;;3.03;2.77;;;12.30;33.00;;;;;;5015703;28;20203;-68
2022/05/28 00:15:12;;;;;;;4.17;3.77;;;12.40;33.10;;;;;;5015570;28;20416;-67
2022/05/28 00:17:38;;;;;;;4.10;3.50;;;12.40;33.10;;;;;;5015541;28;20418;-68
2022/05/28 00:20:06;;;;;;;3.37;2.70;;;12.30;33.00;;;;;;5015231;28;20955;-67
2022/05/28 00:22:36;;;;;;;3.00;2.80;;;12.20;34.30;;;;;;5015419;28;20572;-69
2022/05/28 00:25:02;;;;;;;6.43;3.90;;;12.30;34.30;;;;;;5015427;28;20418;-67
2022/05/28 00:27:28;;;;;;;3.03;2.73;;;12.40;33.60;;;;;;5015273;28;20427;-70
2022/05/28 00:29:53;;;;;;;5.93;2.80;;;12.30;34.10;;;;;;5015167;28;20220;-67
2022/05/28 00:32:19;;;;;;;2.77;2.50;;;12.20;34.80;;;;;;5014889;28;20213;-67
2022/05/28 00:34:44;;;;;;;5.23;2.80;;;12.20;34.90;;;;;;5015367;28;20181;-67
2022/05/28 00:37:10;;;;;;;5.20;4.60;;;12.20;35.00;;;;;;5015240;28;20185;-69
2022/05/28 00:39:36;;;;;;;6.90;2.97;;;12.10;35.50;;;;;;5015064;28;20183;-67
2022/05/28 00:42:02;;;;;;;7.30;3.27;;;12.10;35.80;;;;;;5013591;28;20302;-68
2022/05/28 00:44:27;;;;;;;3.70;3.20;;;12.10;35.80;;;;;;5014929;28;20178;-67
2022/05/28 00:46:56;;;;;;;8.70;4.40;;;12.20;35.20;;;;;;5015121;28;20437;-67
2022/05/28 00:49:27;;;;;;;4.33;3.07;;;12.40;34.60;;;;;;5014869;28;20183;-67
2022/05/28 00:51:55;;;;;;;5.83;3.70;;;12.50;33.10;;;;;;5014524;28;20506;-67
2022/05/28 00:54:21;;;;;;;3.03;2.83;;;12.50;33.20;;;;;;5014655;28;20412;-69
2022/05/28 00:56:47;;;;;;;4.47;4.07;;;12.50;31.70;;;;;;5014659;28;20520;-67
2022/05/28 00:59:13;;;;;;;4.60;4.20;;;12.50;30.70;;;;;;5014748;28;20186;-68
2022/05/28 01:01:41;;;;;;;13.60;3.60;;;12.40;30.60;;;;;;5014250;28;20440;-67
2022/05/28 01:04:38;;;;;;;9.20;4.30;;;12.30;31.00;;;;;;5014594;28;20422;-69
2022/05/28 01:07:29;;;;;;;9.37;5.73;;;12.40;31.00;;;;;;5014762;28;20421;-68
2022/05/28 01:10:01;;;;;;;11.90;5.20;;;12.30;30.70;;;;;;5013966;28;20416;-67
2022/05/28 01:12:51;;;;;;;4.30;3.90;;;12.20;30.90;;;;;;5014362;28;20430;-68
2022/05/28 01:15:37;;;;;;;5.03;3.80;;;12.20;31.30;;;;;;5014488;28;20410;-67
2022/05/28 01:18:18;;;;;;;6.47;4.67;;;12.10;31.30;;;;;;5014404;28;20910;-67
2022/05/28 01:20:54;;;;;;;4.50;4.07;;;12.30;30.50;;;;;;5014250;28;20445;-68
2022/05/28 01:23:54;;;;;;;7.90;4.57;;;12.40;30.60;;;;;;5014000;28;20439;-68
2022/05/28 01:26:29;;;;;;;4.17;3.73;;;12.00;31.90;;;;;;5014383;28;20411;-66
2022/05/28 01:29:02;;;;;;;8.47;3.80;;;12.00;32.70;;;;;;5014096;28;20908;-67
2022/05/28 01:31:30;;;;;;;4.57;4.00;;;12.00;31.80;;;;;;5013861;28;21153;-67
2022/05/28 01:33:57;;;;;;;4.80;4.40;;;12.20;30.80;;;;;;5014078;28;20418;-68
2022/05/28 01:36:24;;;;;;;4.30;3.83;;;12.30;30.20;;;;;;5014176;28;20417;-68
2022/05/28 01:38:53;;;;;;;5.07;4.37;;;12.10;31.60;;;;;;5013917;28;20415;-69
2022/05/28 01:41:19;;;;;;;4.83;4.43;;;12.20;30.70;;;;;;5013846;28;20440;-67
2022/05/28 01:43:48;;;;;;;5.93;5.03;;;12.30;30.10;;;;;;5014537;28;20829;-67
2022/05/28 01:46:16;;;;;;;6.90;4.90;;;12.10;30.50;;;;;;5012631;28;21006;-67
2022/05/28 01:48:44;;;;;;;6.67;5.60;;;12.20;30.00;;;;;;5013969;28;20447;-69
2022/05/28 01:51:11;;;;;;;9.23;5.63;;;12.40;29.40;;;;;;5013940;28;20901;-68
2022/05/28 01:56:22;;;;;;;5.30;4.50;;;12.30;29.70;;;;;;5014151;28;20828;-68
2022/05/28 01:58:48;;;;;;;5.80;5.00;;;12.30;29.50;;;;;;5013762;28;20419;-68
2022/05/28 02:01:14;;;;;;;4.40;4.00;;;12.40;29.70;;;;;;5013427;28;20266;-68
2022/05/28 02:03:43;;;;;;;9.67;4.33;;;12.30;30.00;;;;;;5013590;28;20182;-68
2022/05/28 02:06:08;;;;;;;5.00;4.13;;;12.10;30.30;;;;;;5013475;28;20510;-68
2022/05/28 02:08:42;;;;;;;4.37;3.90;;;12.20;30.80;;;;;;5013545;28;20505;-68
2022/05/28 02:11:16;;;;;;;6.30;4.83;;;12.30;30.80;;;;;;5013567;28;20475;-68
2022/05/28 02:13:51;;;;;;;5.57;4.47;;;12.40;30.50;;;;;;5013176;28;20990;-69
2022/05/28 02:16:22;;;;;;;5.63;5.00;;;12.50;29.20;;;;;;5013308;28;20412;-69
2022/05/28 02:18:56;;;;;;;10.50;4.37;;;12.50;29.30;;;;;;5013343;28;20852;-69
2022/05/28 02:21:30;;;;;;;7.10;4.87;;;12.60;29.60;;;;;;5012120;28;20430;-69
2022/05/28 02:24:05;;;;;;;5.23;4.60;;;12.60;28.50;;;;;;5013410;28;20957;-69
2022/05/28 02:26:43;;;;;;;8.53;4.30;;;12.60;28.60;;;;;;5013358;28;20881;-69
2022/05/28 02:29:10;;;;;;;4.97;4.47;;;12.60;28.50;;;;;;5012919;28;20427;-69
2022/05/28 02:31:36;;;;;;;8.20;5.80;;;12.60;28.50;;;;;;5012755;28;20531;-69
2022/05/28 02:34:02;;;;;;;6.20;5.70;;;12.60;28.50;;;;;;5012967;28;20423;-69
2022/05/28 02:36:29;;;;;;;5.77;5.27;;;12.70;27.90;;;;;;5013045;28;20234;-68
2022/05/28 02:38:55;;;;;;;9.33;5.43;;;12.60;28.50;;;;;;5012885;28;20411;-68
2022/05/28 02:41:21;;;;;;;4.80;4.50;;;12.60;28.50;;;;;;5012720;28;20591;-68
2022/05/28 02:43:47;;;;;;;6.00;5.60;;;12.50;28.50;;;;;;5012731;28;20793;-68
2022/05/28 02:46:13;;;;;;;5.30;4.90;;;12.50;28.40;;;;;;5012743;28;20414;-68
2022/05/28 02:48:39;;;;;;;5.87;5.53;;;12.50;27.30;;;;;;5012767;28;20223;-69
2022/05/28 02:51:07;;;;;;;7.03;6.53;;;12.60;26.20;;;;;;5012390;28;21046;-68
2022/05/28 02:53:33;;;;;;;13.50;7.10;;;12.60;25.40;;;;;;5012450;28;20407;-68
2022/05/28 02:55:59;;;;;;;6.63;6.03;;;12.80;25.00;;;;;;5012640;28;20412;-69
2022/05/28 02:58:25;;;;;;;7.60;6.30;;;12.70;24.50;;;;;;5012588;28;20257;-67
2022/05/28 03:00:51;;;;;;;9.93;7.80;;;12.60;24.60;;;;;;5012591;28;20442;-68
2022/05/28 03:03:19;;;;;;;8.00;7.40;;;12.60;24.00;;;;;;5012317;28;20438;-68
2022/05/28 03:05:47;;;;;;;9.10;7.50;;;12.60;24.10;;;;;;5012440;28;20420;-68
2022/05/28 03:08:12;;;;;;;7.70;7.20;;;12.40;24.20;;;;;;5012401;28;20447;-68
2022/05/28 03:10:38;;;;;;;7.87;7.33;;;12.00;24.00;;;;;;5012199;28;20880;-68
2022/05/28 03:13:03;;;;;;;8.47;7.67;;;12.00;24.80;;;;;;5012109;28;20258;-67
2022/05/28 03:15:29;;;;;;;7.13;6.43;;;11.80;24.60;;;;;;5012413;28;20229;-67
2022/05/28 03:17:56;;;;;;;8.30;7.83;;;11.90;24.80;;;;;;5012323;28;20179;-68
2022/05/28 03:20:22;;;;;;;12.03;7.50;;;11.70;23.80;;;;;;5012274;28;20508;-67
2022/05/28 03:22:47;;;;;;;7.07;6.43;;;11.60;23.70;;;;;;5012029;28;20417;-67
2022/05/28 03:25:13;;;;;;;8.07;7.20;;;11.50;23.80;;;;;;5012100;28;20222;-67
2022/05/28 03:27:38;;;;;;;7.43;6.67;;;11.50;24.10;;;;;;5010892;28;20181;-66
2022/05/28 03:30:04;;;;;;;7.43;6.73;;;11.50;24.20;;;;;;5012112;28;20502;-67
2022/05/28 03:32:30;;;;;;;10.57;7.03;;;11.40;24.50;;;;;;5012990;28;20210;-67
2022/05/28 03:34:56;;;;;;;7.57;7.00;;;11.60;23.80;;;;;;5018578;28;20446;-67
2022/05/28 03:37:21;;;;;;;7.20;6.80;;;11.60;23.30;;;;;;5018717;28;20223;-68
2022/05/28 03:39:47;;;;;;;8.23;7.70;;;11.60;22.70;;;;;;5018815;28;20174;-68
2022/05/28 03:42:12;;;;;;;8.33;7.50;;;11.40;22.40;;;;;;5018793;28;20547;-68
2022/05/28 03:44:38;;;;;;;7.93;7.23;;;11.20;23.40;;;;;;5018833;28;20179;-68
2022/05/28 03:47:04;;;;;;;7.93;7.33;;;11.20;23.40;;;;;;5018865;28;20250;-68
2022/05/28 03:49:35;;;;;;;11.90;8.17;;;11.30;22.90;;;;;;5018679;28;20194;-67
2022/05/28 03:52:01;;;;;;;7.90;7.40;;;11.30;22.80;;;;;;5018270;28;20520;-68
2022/05/28 03:54:27;;;;;;;10.77;9.50;;;11.40;22.60;;;;;;5018359;28;20411;-68
2022/05/28 03:56:58;;;;;;;8.47;8.00;;;11.50;21.50;;;;;;5018560;28;20744;-68
2022/05/28 03:59:23;;;;;;;9.43;8.70;;;11.50;21.30;;;;;;5017341;28;20179;-68
2022/05/28 04:01:50;;;;;;;8.77;7.87;;;11.20;21.60;;;;;;5018124;28;20432;-68
2022/05/28 04:04:15;;;;;;;10.50;9.43;;;11.10;21.70;;;;;;5018440;28;20181;-68
2022/05/28 04:06:41;;;;;;;7.87;7.13;;;11.10;21.70;;;;;;5018480;28;20704;-68
2022/05/28 04:09:07;;;;;;;8.63;7.87;;;11.10;21.80;;;;;;5018267;28;20184;-68
2022/05/28 04:11:32;;;;;;;7.73;7.23;;;11.10;21.80;;;;;;5017950;28;20702;-68
2022/05/28 04:13:58;;;;;;;8.10;7.60;;;11.00;21.90;;;;;;5018258;28;20230;-68
2022/05/28 04:16:25;;;;;;;7.50;7.10;;;11.00;22.30;;;;;;5018441;28;20237;-68
2022/05/28 04:18:51;;;;;;;7.90;7.20;;;11.00;21.80;;;;;;5018140;28;20300;-68
2022/05/28 04:21:17;;;;;;;9.43;8.60;;;11.10;21.60;;;;;;5017932;28;20534;-68
2022/05/28 04:23:42;;;;;;;8.40;7.90;;;11.10;19.90;;;;;;5018532;28;20677;-68
2022/05/28 04:26:08;;;;;;;10.30;9.50;;;11.20;19.90;;;;;;5018603;28;20419;-68
2022/05/28 04:28:34;;;;;;;11.73;9.10;;;11.10;17.90;;;;;;5018398;28;20179;-69
2022/05/28 04:30:59;;;;;;;10.90;10.00;;;11.10;18.30;;;;;;5018117;28;20700;-67
2022/05/28 04:33:25;;;;;;;10.20;9.40;;;11.20;18.10;;;;;;5017828;28;20178;-68
2022/05/28 04:35:50;;;;;;;8.90;8.47;;;11.30;18.30;;;;;;5018043;28;20242;-67
2022/05/28 04:38:16;;;;;;;9.33;8.93;;;11.10;19.10;;;;;;5017922;28;20540;-68
2022/05/28 04:40:41;;;;;;;14.43;10.37;;;11.10;17.60;;;;;;5017965;28;20287;-67
2022/05/28 04:43:07;;;;;;;11.07;10.47;;;11.20;17.70;;;;;;5017780;28;20539;-67
2022/05/28 04:45:33;;;;;;;12.03;10.90;;;11.20;17.40;;;;;;5014851;28;20726;-68
2022/05/28 04:47:58;;;;;;;11.17;10.50;;;11.30;17.00;;;;;;5014797;28;20182;-67
2022/05/28 04:50:24;;;;;;;10.97;10.47;;;11.20;16.20;;;;;;5014663;28;20220;-68
2022/05/28 04:52:49;;;;;;;10.97;9.90;;;11.20;16.00;;;;;;5014640;28;20543;-68
2022/05/28 04:55:15;;;;;;;10.10;9.70;;;11.20;16.40;;;;;;5014895;28;20183;-68
2022/05/28 04:57:40;;;;;;;10.37;9.77;;;11.10;16.20;;;;;;5013976;28;20225;-68
2022/05/28 05:00:13;;;;;;;10.30;9.70;;;11.30;16.70;;;;;;5014744;28;20689;-69
2022/05/28 05:02:38;;;;;;;11.23;10.43;;;11.30;16.40;;;;;;5014414;28;20316;-67
2022/05/28 05:05:04;;;;;;;10.23;9.63;;;11.20;16.70;;;;;;5014699;28;20509;-67
2022/05/28 05:07:30;;;;;;;10.70;9.80;;;11.20;16.90;;;;;;5014572;28;20200;-68
2022/05/28 05:09:55;;;;;;;10.63;10.07;;;11.40;16.60;;;;;;5014724;28;20419;-68
2022/05/28 05:12:21;;;;;;;10.67;9.77;;;11.70;17.20;;;;;;5014469;28;20215;-67
2022/05/28 05:14:46;;;;;;;9.90;9.30;;;11.90;16.40;;;;;;5015278;28;20213;-68
2022/05/28 05:17:12;;;;;;;11.10;10.50;;;11.90;16.10;;;;;;5013653;28;20242;-67
2022/05/28 05:19:38;;;;;;;13.47;12.43;;;12.00;15.80;;;;;;5014811;28;20181;-67
2022/05/28 05:22:03;;;;;;;11.43;10.53;;;11.90;15.20;;;;;;5014279;28;20427;-67
2022/05/28 05:24:29;;;;;;;11.93;11.33;;;11.90;15.40;;;;;;5015305;28;20322;-67
2022/05/28 05:26:55;;;;;;;11.97;11.40;;;11.70;15.20;;;;;;5014659;28;20182;-67
2022/05/28 05:29:20;;;;;;;11.87;11.27;;;11.80;15.30;;;;;;5014303;28;20183;-69
2022/05/28 05:31:47;;;;;;;12.00;11.00;;;11.80;15.30;;;;;;5013797;28;20199;-68
2022/05/28 05:34:12;;;;;;;11.10;10.60;;;11.60;15.20;;;;;;5014365;28;20174;-69
2022/05/28 05:36:38;;;;;;;13.10;12.10;;;11.60;15.20;;;;;;5013967;28;20484;-68
2022/05/28 05:39:03;;;;;;;11.30;10.60;;;11.70;15.20;;;;;;5013981;28;20186;-68
2022/05/28 05:41:29;;;;;;;13.67;12.53;;;12.20;14.80;;;;;;5013878;28;20266;-67
2022/05/28 05:43:54;;;;;;;13.37;12.67;;;12.60;14.90;;;;;;5013917;28;20183;-68
2022/05/28 05:46:20;;;;;;;13.53;12.80;;;12.80;13.20;;;;;;5013916;28;20191;-68
2022/05/28 05:48:46;;;;;;;13.10;12.40;;;13.00;12.50;;;;;;5014561;28;20187;-68
2022/05/28 05:51:14;;;;;;;13.90;13.27;;;13.60;12.40;;;;;;5013442;28;20212;-67
2022/05/28 05:53:41;;;;;;;22.80;14.77;;;15.00;10.40;;;;;;5013680;28;20174;-68
2022/05/28 05:56:07;;;;;;;14.30;13.60;;;15.60;7.30;;;;;;5012669;28;20417;-68
2022/05/28 05:58:34;;;;;;;15.30;14.43;;;15.00;8.60;;;;;;5013598;28;20433;-67
2022/05/28 06:01:00;;;;;;;14.53;13.70;;;14.90;8.80;;;;;;5013555;28;20440;-67
2022/05/28 06:03:26;;;;;;;15.10;14.10;;;15.50;10.70;;;;;;5013511;28;20959;-68
2022/05/28 06:05:58;;;;;;;15.47;14.70;;;16.50;8.00;;;;;;5013476;28;20409;-67
2022/05/28 06:08:24;;;;;;;16.10;15.27;;;17.50;7.10;;;;;;5013538;28;20263;-68
2022/05/28 06:10:50;;;;;;;17.30;15.90;;;18.50;6.20;;;;;;5013408;28;21038;-68
2022/05/28 06:13:15;;;;;;;16.80;15.90;;;18.50;4.10;;;;;;5013250;28;20421;-67
2022/05/28 06:15:41;;;;;;;15.33;14.63;;;19.10;4.40;;;;;;5013246;28;20587;-68
2022/05/28 06:18:07;;;;;;;17.33;15.60;;;19.70;2.80;;;;;;5013201;28;20183;-68
2022/05/28 06:20:34;;;;;;;15.07;14.50;;;19.30;2.50;;;;;;5011925;28;20298;-69
2022/05/28 06:23:00;;;;;;;15.70;15.00;;;19.30;2.50;;;;;;5012808;28;20169;-68
2022/05/28 06:25:26;;;;;;;15.63;14.93;;;18.10;3.90;;;;;;5013250;28;20423;-69
2022/05/28 06:27:51;;;;;;;15.27;14.67;;;17.80;4.70;;;;;;5011979;28;20461;-68
2022/05/28 06:30:17;;;;;;;15.77;14.83;;;17.20;4.60;;;;;;5012808;28;20285;-69
2022/05/28 06:32:43;;;;;;;15.23;14.43;;;16.00;4.80;;;;;;5012980;28;20655;-68
2022/05/28 06:35:09;;;;;;;15.93;14.83;;;15.20;7.20;;;;;;5012977;28;20250;-69
2022/05/28 06:37:36;;;;;;;14.83;14.20;;;15.30;7.50;;;;;;5013131;28;20173;-68
2022/05/28 06:40:02;;;;;;;15.37;14.70;;;14.50;8.40;;;;;;5012749;28;20427;-69
2022/05/28 06:42:28;;;;;;;14.53;13.93;;;14.70;9.00;;;;;;5012544;28;20784;-69
2022/05/28 06:44:55;;;;;;;13.93;13.33;;;14.40;9.70;;;;;;5011858;28;20188;-67
2022/05/28 06:47:21;;;;;;;15.97;14.67;;;14.50;9.70;;;;;;5011325;28;20438;-69
2022/05/28 06:51:01;;;;;;;14.73;14.03;;;15.30;8.90;;;;;;5013060;28;20414;-69
2022/05/28 06:52:33;;;;;;;12.90;12.10;;;15.70;8.50;;;;;;5012455;28;20863;-69
2022/05/28 06:54:58;;;;;;;14.13;13.10;;;14.50;10.10;;;;;;5012718;28;20452;-69
2022/05/28 06:57:24;;;;;;;12.87;12.27;;;14.60;10.80;;;;;;5012739;28;20723;-70
2022/05/28 06:59:49;;;;;;;13.87;13.17;;;15.40;9.40;;;;;;5012516;28;20607;-70
2022/05/28 07:02:15;;;;;;;13.23;12.50;;;15.30;8.90;;;;;;5012449;28;20668;-70
2022/05/28 07:04:40;;;;;;;13.90;12.83;;;14.50;8.80;;;;;;5012659;28;20170;-71
2022/05/28 07:07:06;;;;;;;13.80;13.20;;;15.50;8.60;;;;;;5012219;28;20172;-69
2022/05/28 07:09:31;;;;;;;14.13;13.33;;;16.90;6.50;;;;;;5012370;28;20215;-69
2022/05/28 07:11:57;;;;;;;13.10;12.30;;;16.80;5.40;;;;;;5010753;28;20685;-69
2022/05/28 07:14:22;;;;;;;13.10;12.40;;;18.00;6.20;;;;;;5012660;28;20191;-69
2022/05/28 07:16:48;;;;;;;13.57;12.87;;;17.70;4.50;;;;;;5012521;28;20539;-69
2022/05/28 07:19:13;;;;;;;14.50;13.80;;;18.20;4.90;;;;;;5012246;28;20176;-69
2022/05/28 07:21:39;;;;;;;15.03;13.97;;;19.10;3.80;;;;;;5011174;28;20196;-70
2022/05/28 07:24:05;;;;;;;14.93;14.13;;;19.30;3.20;;;;;;5012211;28;20203;-70
2022/05/28 07:26:30;;;;;;;14.90;14.10;;;19.70;2.80;;;;;;5012502;28;20263;-70
2022/05/28 07:28:56;;;;;;;14.53;13.73;;;19.30;2.20;;;;;;5012093;28;20179;-70
2022/05/28 07:31:21;;;;;;;14.30;13.43;;;19.50;2.30;;;;;;5012018;28;20719;-70
2022/05/28 07:33:48;;;;;;;14.47;13.77;;;20.70;1.10;;;;;;5012125;28;20306;-68
2022/05/28 07:36:24;;;;;;;14.00;13.20;;;20.00;1.60;;;;;;5012739;28;20179;-67
2022/05/28 07:38:51;;;;;;;14.67;13.87;;;20.60;1.30;;;;;;5013020;28;20411;-67
2022/05/28 07:41:23;;;;;;;16.43;15.40;;;21.70;1.00;;;;;;5012040;28;20478;-65
2022/05/28 07:43:48;;;;;;;15.87;14.97;;;23.20;1.00;;;;;;5011840;28;20538;-64
2022/05/28 07:46:33;;;;;;;15.73;14.83;;;23.90;1.00;;;;;;5011919;28;20876;-67
2022/05/28 07:49:01;;;;;;;13.77;13.27;;;22.50;1.00;;;;;;5012026;28;20434;-66
2022/05/28 07:51:27;;;;;;;15.67;14.80;;;22.10;1.00;;;;;;5010610;28;20475;-67
2022/05/28 07:53:53;;;;;;;15.03;14.20;;;21.40;1.00;;;;;;5011233;28;20778;-67
2022/05/28 07:56:19;;;;;;;15.87;15.07;;;20.80;1.40;;;;;;5011302;28;20481;-69
2022/05/28 07:58:45;;;;;;;15.33;14.50;;;22.30;1.00;;;;;;5011964;28;20450;-69
2022/05/28 08:01:22;;;;;;;15.17;14.50;;;23.80;1.00;;;;;;5011530;28;20426;-69
2022/05/28 08:03:49;;;;;;;14.40;13.70;;;23.80;1.00;;;;;;5011783;28;20481;-71
2022/05/28 08:06:15;;;;;;;15.40;14.60;;;24.00;1.00;;;;;;5010231;28;20427;-69
2022/05/28 08:08:41;;;;;;;15.23;14.47;;;23.40;1.00;;;;;;5011977;28;20522;-70
2022/05/28 08:11:08;;;;;;;15.70;15.00;;;23.80;1.00;;;;;;5011383;28;20505;-69
2022/05/28 08:13:34;;;;;;;15.43;14.63;;;24.00;1.00;;;;;;5011688;28;20925;-69
2022/05/28 08:16:00;;;;;;;15.47;14.77;;;22.70;1.00;;;;;;5011824;28;20439;-68
2022/05/28 08:18:26;;;;;;;15.50;14.70;;;22.40;1.00;;;;;;5011634;28;20516;-69
2022/05/28 08:23:40;;;;;;;14.80;14.10;;;23.60;1.00;;;;;;5015763;28;20183;-66
2022/05/28 08:26:06;;;;;;;15.83;14.97;;;23.60;1.00;;;;;;5014661;28;20481;-68
2022/05/28 08:28:31;;;;;;;14.80;14.20;;;21.20;1.00;;;;;;5015162;28;20422;-69
2022/05/28 08:30:57;;;;;;;15.53;14.83;;;22.10;1.00;;;;;;5014786;28;20519;-68
2022/05/28 08:33:22;;;;;;;16.43;15.07;;;20.70;1.00;;;;;;5014938;28;20221;-68
2022/05/28 08:35:50;;;;;;;14.63;13.83;;;20.00;1.00;;;;;;5014816;28;20651;-68
2022/05/28 08:38:18;;;;;;;15.23;14.37;;;21.00;1.00;;;;;;5015146;28;20202;-69
2022/05/28 08:40:49;;;;;;;15.60;14.80;;;20.80;1.00;;;;;;5014783;28;20446;-68
2022/05/28 08:43:17;;;;;;;15.80;14.80;;;21.00;1.00;;;;;;5014813;28;20900;-72
2022/05/28 08:45:45;;;;;;;14.97;14.37;;;19.40;1.00;;;;;;5014894;28;20418;-67
2022/05/28 08:48:17;;;;;;;14.90;14.23;;;18.80;1.70;;;;;;5014399;28;20453;-69
2022/05/28 08:51:09;;;;;;;15.00;14.10;;;18.10;1.60;;;;;;5014662;28;20532;-68
2022/05/28 08:53:42;;;;;;;15.23;14.53;;;17.90;1.50;;;;;;5014440;28;20438;-71
2022/05/28 08:56:08;;;;;;;15.10;14.40;;;18.50;1.90;;;;;;5014754;28;20481;-68
2022/05/28 08:58:35;;;;;;;13.37;12.87;;;18.80;1.10;;;;;;5015094;28;20411;-70
2022/05/28 09:01:04;;;;;;;15.07;14.20;;;18.30;1.20;;;;;;5015194;28;20200;-68
2022/05/28 09:03:42;;;;;;;14.97;14.13;;;17.90;1.50;;;;;;5014361;28;20429;-68
2022/05/28 09:06:14;;;;;;;13.97;13.47;;;17.40;2.60;;;;;;5014994;28;20410;-67
2022/05/28 09:08:46;;;;;;;14.70;13.90;;;16.70;2.50;;;;;;5006533;28;20832;-67
2022/05/28 09:11:16;;;;;;;14.67;13.97;;;16.40;3.20;;;;;;4993230;28;20467;-67
2022/05/28 09:13:47;;;;;;;14.10;13.40;;;16.70;2.00;;;;;;4994677;28;20910;-68
2022/05/28 09:16:26;;;;;;;14.53;13.73;;;16.70;2.20;;;;;;4995370;28;20403;-68
2022/05/28 09:18:54;;;;;;;13.80;13.17;;;16.30;2.50;;;;;;5004559;28;20513;-69
2022/05/28 09:21:21;;;;;;;14.47;13.70;;;16.20;2.20;;;;;;5014396;28;20521;-70
2022/05/28 09:23:57;;;;;;;14.30;13.70;;;16.50;1.00;;;;;;5015083;28;20434;-69
2022/05/28 09:26:58;;;;;;;13.50;12.80;;;16.80;1.50;;;;;;5009930;28;20936;-69
2022/05/28 09:29:36;;;;;;;14.37;13.77;;;16.00;2.80;;;;;;4990503;28;20776;-69
2022/05/28 09:32:10;;;;;;;13.60;13.10;;;15.80;3.90;;;;;;5001176;28;20466;-67
2022/05/28 09:34:54;;;;;;;14.60;14.00;;;16.00;4.10;;;;;;5013987;28;20417;-69
2022/05/28 09:37:46;;;;;;;13.33;12.83;;;16.70;3.60;;;;;;5012665;28;20426;-65
2022/05/28 09:40:25;;;;;;;14.30;13.60;;;16.90;2.50;;;;;;5013006;28;20438;-67
2022/05/28 09:43:28;;;;;;;14.70;13.90;;;17.20;2.60;;;;;;5013708;28;20825;-67
2022/05/28 09:46:10;;;;;;;13.17;12.67;;;16.40;2.70;;;;;;5013934;28;20440;-69
2022/05/28 09:48:36;;;;;;;15.17;14.27;;;15.80;1.90;;;;;;5013391;28;20430;-70
2022/05/28 09:51:02;;;;;;;13.50;13.00;;;15.80;3.50;;;;;;5013531;28;20466;-67
2022/05/28 09:56:28;;;;;;;13.80;13.30;;;17.20;2.40;;;;;;5013577;28;20187;-65
2022/05/28 09:58:54;;;;;;;13.93;13.43;;;17.80;1.00;;;;;;5013433;28;20413;-65
2022/05/28 10:01:25;;;;;;;14.10;13.17;;;17.60;1.00;;;;;;5012637;28;20895;-67
2022/05/28 10:06:50;;;;;;;13.87;13.30;;;17.60;1.00;;;;;;4994039;28;20447;-67
2022/05/28 10:09:19;;;;;;;13.23;12.70;;;17.20;1.00;;;;;;5011784;28;20420;-67
2022/05/28 10:12:14;;;;;;;13.37;12.87;;;16.80;1.00;;;;;;5012818;28;20458;-67
2022/05/28 10:14:39;;;;;;;14.57;13.70;;;17.50;1.00;;;;;;5005521;28;20446;-72
2022/05/28 10:17:05;;;;;;;13.33;12.83;;;18.20;1.70;;;;;;5013444;28;20411;-71
2022/05/28 10:19:42;;;;;;;14.50;14.00;;;18.40;1.00;;;;;;5013367;28;20180;-70
2022/05/28 10:22:19;;;;;;;14.00;13.40;;;17.60;1.00;;;;;;5012904;28;20430;-72
2022/05/28 10:24:55;;;;;;;14.60;14.00;;;17.80;1.40;;;;;;5013719;28;20426;-68
2022/05/28 10:27:29;;;;;;;14.30;13.60;;;18.60;1.00;;;;;;5012573;28;20415;-68
2022/05/28 10:29:57;;;;;;;14.20;13.60;;;18.20;1.00;;;;;;5013425;28;20444;-67
2022/05/28 10:32:28;;;;;;;14.27;13.67;;;18.10;1.00;;;;;;5012050;28;20451;-68
2022/05/28 10:35:10;;;;;;;14.10;13.60;;;18.90;1.00;;;;;;5012931;28;20414;-69
2022/05/28 10:37:36;;;;;;;14.30;13.77;;;19.70;1.00;;;;;;5011744;28;20415;-69
2022/05/28 10:40:18;;;;;;;14.17;13.57;;;19.70;1.00;;;;;;5012501;28;20437;-68
2022/05/28 10:42:45;;;;;;;14.40;13.80;;;19.00;1.00;;;;;;5011903;28;20267;-67
2022/05/28 10:45:13;;;;;;;15.43;14.73;;;18.80;1.00;;;;;;5012674;28;21011;-67
2022/05/28 10:47:57;;;;;;;15.67;14.87;;;19.10;1.00;;;;;;5012784;28;20503;-67
2022/05/28 10:50:44;;;;;;;14.53;14.03;;;19.60;1.00;;;;;;5012674;28;20454;-68
2022/05/28 10:53:20;;;;;;;15.03;14.43;;;18.60;1.00;;;;;;5012181;28;20477;-67
2022/05/28 10:56:25;;;;;;;14.83;14.20;;;18.30;1.00;;;;;;5012556;28;20399;-68
2022/05/28 10:59:13;;;;;;;14.23;13.63;;;17.70;1.00;;;;;;5012611;28;20445;-70
2022/05/28 11:01:45;;;;;;;13.83;13.23;;;17.80;1.00;;;;;;5010001;28;20545;-68
2022/05/28 11:04:53;;;;;;;14.27;13.70;;;18.20;1.00;;;;;;5012523;28;20418;-69
2022/05/28 11:07:36;;;;;;;15.03;14.43;;;17.80;1.00;;;;;;4971256;28;20813;-69
2022/05/28 11:10:10;;;;;;;14.83;14.23;;;17.70;1.00;;;;;;5009360;28;20767;-70
2022/05/28 11:12:56;;;;;;;13.40;12.90;;;18.30;1.00;;;;;;5012640;28;20469;-67
2022/05/28 11:15:43;;;;;;;14.80;14.10;;;18.40;1.00;;;;;;5012198;28;20437;-68
2022/05/28 11:18:37;;;;;;;13.37;12.87;;;18.50;1.00;;;;;;5012887;28;20414;-69
2022/05/28 11:21:31;;;;;;;14.07;13.47;;;17.30;1.00;;;;;;5012607;28;20427;-69
2022/05/28 11:24:24;;;;;;;14.63;13.90;;;17.70;1.00;;;;;;5004944;28;20514;-70
2022/05/28 11:27:35;;;;;;;14.20;13.60;;;17.90;1.00;;;;;;4992397;28;20428;-67
2022/05/28 11:30:12;;;;;;;14.20;13.60;;;18.40;1.00;;;;;;4984767;28;20502;-66
2022/05/28 11:32:44;;;;;;;13.83;13.33;;;18.80;1.00;;;;;;4992168;28;20554;-65
2022/05/28 11:35:15;;;;;;;14.10;13.50;;;18.40;1.00;;;;;;5000563;28;20435;-66
2022/05/28 11:37:59;;;;;;;14.10;13.60;;;19.00;1.00;;;;;;5012242;28;20414;-68
2022/05/28 11:40:30;;;;;;;14.47;13.67;;;19.60;1.00;;;;;;5011981;28;20431;-67
2022/05/28 11:43:11;;;;;;;14.87;14.27;;;19.60;1.00;;;;;;4999347;28;20423;-66
2022/05/28 11:45:51;;;;;;;14.60;14.10;;;19.30;1.00;;;;;;5008259;28;20414;-66
2022/05/28 11:48:27;;;;;;;15.10;14.33;;;19.10;1.00;;;;;;5012006;28;20403;-65
2022/05/28 11:53:54;;;;;;;14.10;13.50;;;18.00;1.00;;;;;;4993745;28;20415;-66
2022/05/28 11:56:28;;;;;;;15.17;14.33;;;18.40;1.00;;;;;;4995104;28;20435;-67
2022/05/28 11:59:17;;;;;;;14.50;13.90;;;18.50;1.00;;;;;;4996488;28;20415;-65
2022/05/28 12:02:04;;;;;;;14.30;13.80;;;18.60;1.00;;;;;;5001607;28;20450;-69
2022/05/28 12:04:33;;;;;;;15.43;14.53;;;17.50;1.00;;;;;;5016059;28;20410;-67
2022/05/28 12:07:04;;;;;;;14.40;13.70;;;17.40;1.00;;;;;;5015275;28;20989;-68
2022/05/28 12:09:34;;;;;;;13.30;12.80;;;17.80;1.50;;;;;;5015882;28;20493;-68
2022/05/28 12:12:02;;;;;;;14.23;13.63;;;17.90;1.00;;;;;;5014136;28;20462;-65
2022/05/28 12:14:35;;;;;;;13.27;12.73;;;18.10;1.00;;;;;;5015331;28;20854;-67
2022/05/28 12:17:23;;;;;;;14.20;13.57;;;18.50;1.00;;;;;;5015618;28;20767;-67
2022/05/28 12:19:59;;;;;;;14.07;13.57;;;18.80;1.00;;;;;;4999910;28;20814;-66
2022/05/28 12:22:24;;;;;;;13.90;13.40;;;18.60;1.00;;;;;;4995547;28;20780;-68
2022/05/28 12:25:06;;;;;;;14.37;13.77;;;19.30;1.00;;;;;;4995744;28;20503;-66
2022/05/28 12:27:37;;;;;;;13.93;13.10;;;;;;;;;;4997407;28;20185;-68
2022/05/28 12:30:08;;;;;;;14.03;13.43;;;;;;;;;;5016385;28;20440;-66
2022/05/28 12:32:43;;;;;;;15.07;14.00;;;;;;;;;;5015044;28;20473;-66
2022/05/28 12:35:14;;;;;;;13.90;13.40;;;18.30;1.00;;;;;;5015734;28;20406;-67
2022/05/28 12:38:01;;;;;;;14.60;13.90;;;17.40;2.10;;;;;;5014800;28;20441;-67
2022/05/28 12:40:53;;;;;;;13.97;13.47;;;16.80;1.90;;;;;;5013982;28;20455;-69
2022/05/28 12:43:33;;;;;;;14.70;14.00;;;16.80;2.20;;;;;;5014670;28;20431;-68
2022/05/28 12:46:19;;;;;;;13.53;12.93;;;17.20;2.10;;;;;;5015380;28;20502;-66
2022/05/28 12:48:46;;;;;;;14.50;13.37;;;17.30;1.10;;;;;;5014884;28;20749;-67
2022/05/28 12:52:08;;;;;;;14.00;13.40;;;18.00;1.10;;;;;;5014220;28;20478;-67
2022/05/28 12:54:37;;;;;;;14.27;13.50;;;18.30;1.00;;;;;;4964965;28;20459;-67
2022/05/28 12:57:10;;;;;;;14.57;14.07;;;18.20;1.00;;;;;;5014490;28;20413;-69
2022/05/28 12:59:40;;;;;;;14.50;13.70;;;18.30;1.00;;;;;;4995079;28;20491;-66
2022/05/28 13:02:37;;;;;;;15.43;14.73;;;18.50;1.00;;;;;;4994935;28;20419;-68
2022/05/28 13:05:23;;;;;;;14.53;13.93;;;18.60;1.00;;;;;;4994581;28;20486;-69
2022/05/28 13:07:54;;;;;;;15.07;14.37;;;18.30;1.00;;;;;;4995045;28;20423;-69
2022/05/28 13:10:24;;;;;;;14.13;13.30;;;18.30;1.00;;;;;;4994986;28;20504;-69
2022/05/28 13:13:13;;;;;;;13.80;13.20;;;18.40;1.00;;;;;;5004261;28;20834;-71